Time;durP1;ratioP1;P1;durP2;ratioP2;P2;SDS_P1;SDS_P2;PMS_P1;PMS_P2;Temp;Humidity;BMP_temperature;BMP_pressure;BME280_temperature;BME280_humidity;BME280_pressure;Samples;Min_cycle;Max_cycle;Signal;HPM_P1;HPM_P2
2023/12/21 00:01:55;;;;;;;;;;;;;;;3.04;71.12;98957.88;5030822;28;19985;-76
2023/12/21 00:04:20;;;;;;;;;;;;;;;3.05;71.03;98954.28;5031940;28;19920;-76
2023/12/21 00:06:46;;;;;;;;;;;;;;;3.08;70.90;98956.59;5030902;28;19984;-77
2023/12/21 00:09:11;;;;;;;;;;;;;;;3.10;70.73;98963.31;5032015;28;19920;-76
2023/12/21 00:11:36;;;;;;;;;;;;;;;3.07;70.88;98955.78;5030593;28;19913;-76
2023/12/21 00:14:02;;;;;;;;;;;;;;;3.10;70.70;98954.69;5031837;28;20006;-76
2023/12/21 00:16:27;;;;;;;;;;;;;;;3.07;70.72;98958.41;5031929;28;19948;-76
2023/12/21 00:18:53;;;;;;;;;;;;;;;3.10;71.07;98954.69;5031797;28;19913;-76
2023/12/21 00:21:18;;;;;;;;;;;;;;;3.10;71.11;98952.88;5031834;28;20095;-76
2023/12/21 00:23:44;;;;;;;;;;;;;;;3.07;70.65;98953.19;5031763;28;19924;-76
2023/12/21 00:26:09;;;;;;;;;;;;;;;3.07;71.05;98962.78;5035891;28;19912;-76
2023/12/21 00:28:35;;;;;;;;;;;;;;;3.06;70.46;98946.31;5035694;28;19921;-76
2023/12/21 00:31:00;;;;;;;;;;;;;;;3.02;70.73;98957.19;5034501;28;20378;-76
2023/12/21 00:33:25;;;;;;;;;;;;;;;3.05;71.06;98959.50;5035898;28;19913;-76
2023/12/21 00:35:51;;;;;;;;;;;;;;;3.09;70.63;98955.63;5035669;28;20372;-76
2023/12/21 00:38:16;;;;;;;;;;;;;;;3.06;70.58;98950.72;5035438;28;19928;-76
2023/12/21 00:40:41;;;;;;;;;;;;;;;3.07;70.75;98954.97;5035684;28;19913;-77
2023/12/21 00:43:06;;;;;;;;;;;;;;;3.05;70.54;98942.06;5035586;28;19913;-77
2023/12/21 00:45:32;;;;;;;;;;;;;;;3.07;70.91;98949.75;5035466;28;19913;-76
2023/12/21 00:47:57;;;;;;;;;;;;;;;3.04;70.71;98945.66;5035415;28;20394;-76
2023/12/21 00:50:22;;;;;;;;;;;;;;;3.02;70.55;98950.19;5035386;28;19920;-76
2023/12/21 00:52:47;;;;;;;;;;;;;;;2.99;70.93;98940.03;5035368;28;20012;-76
2023/12/21 00:55:13;;;;;;;;;;;;;;;3.02;70.95;98938.94;5034004;28;19917;-76
2023/12/21 00:57:38;;;;;;;;;;;;;;;3.02;70.47;98937.16;5035396;28;19964;-77
2023/12/21 01:00:04;;;;;;;;;;;;;;;3.01;70.67;98935.50;5035268;28;19917;-76
2023/12/21 01:02:29;;;;;;;;;;;;;;;3.03;70.63;98930.13;5034124;28;19913;-76
2023/12/21 01:04:54;;;;;;;;;;;;;;;3.03;70.42;98923.13;5035368;28;19913;-77
2023/12/21 01:07:20;;;;;;;;;;;;;;;3.02;70.55;98913.66;5035186;28;19917;-76
2023/12/21 01:09:45;;;;;;;;;;;;;;;3.04;70.52;98921.34;5035185;28;19914;-76
2023/12/21 01:12:10;;;;;;;;;;;;;;;3.05;70.60;98917.78;5035143;28;19917;-76
2023/12/21 01:14:35;;;;;;;;;;;;;;;3.03;70.54;98909.28;5034993;28;19913;-76
2023/12/21 01:17:01;;;;;;;;;;;;;;;3.02;70.43;98911.06;5033754;28;20000;-75
2023/12/21 01:19:27;;;;;;;;;;;;;;;2.99;70.79;98908.75;5034959;28;19920;-76
2023/12/21 01:21:52;;;;;;;;;;;;;;;2.94;70.18;98910.13;5033602;28;19999;-76
2023/12/21 01:24:17;;;;;;;;;;;;;;;2.83;70.54;98911.97;5034929;28;19943;-76
2023/12/21 01:26:43;;;;;;;;;;;;;;;2.81;70.82;98911.28;5034915;28;20036;-76
2023/12/21 01:29:08;;;;;;;;;;;;;;;2.80;70.80;98912.25;5034705;28;20003;-77
2023/12/21 01:31:33;;;;;;;;;;;;;;;2.75;71.07;98911.03;5034707;28;20374;-76
2023/12/21 01:33:59;;;;;;;;;;;;;;;2.74;71.01;98902.38;5034749;28;20050;-76
2023/12/21 01:36:26;;;;;;;;;;;;;;;2.79;71.16;98909.78;5033664;28;20421;-76
2023/12/21 01:38:52;;;;;;;;;;;;;;;2.81;70.90;98910.47;5034430;28;19921;-76
2023/12/21 01:41:17;;;;;;;;;;;;;;;2.79;71.00;98910.59;5033620;28;19939;-76
2023/12/21 01:43:42;;;;;;;;;;;;;;;2.81;70.45;98913.88;5034331;28;19935;-76
2023/12/21 01:46:08;;;;;;;;;;;;;;;2.81;71.07;98910.47;5034593;28;19905;-76
2023/12/21 01:48:34;;;;;;;;;;;;;;;2.79;70.48;98907.16;5034361;28;20394;-76
2023/12/21 01:51:01;;;;;;;;;;;;;;;2.77;71.07;98915.13;5034384;28;19913;-76
2023/12/21 01:53:26;;;;;;;;;;;;;;;2.76;71.00;98917.88;5034036;28;19914;-76
2023/12/21 01:55:52;;;;;;;;;;;;;;;2.76;71.13;98913.50;5034039;28;20436;-76
2023/12/21 01:58:17;;;;;;;;;;;;;;;2.74;71.05;98907.59;5033952;28;19970;-76
2023/12/21 02:00:42;;;;;;;;;;;;;;;2.76;71.22;98904.84;5034130;28;19972;-77
2023/12/21 02:03:08;;;;;;;;;;;;;;;2.77;70.66;98909.09;5032828;28;19953;-76
2023/12/21 02:05:33;;;;;;;;;;;;;;;2.72;70.80;98901.72;5034150;28;19998;-76
2023/12/21 02:07:58;;;;;;;;;;;;;;;2.72;70.84;98900.91;5033921;28;19924;-77
2023/12/21 02:10:24;;;;;;;;;;;;;;;2.73;70.87;98892.13;5034031;28;19913;-76
2023/12/21 02:12:49;;;;;;;;;;;;;;;2.69;71.08;98893.38;5032704;28;19953;-76
2023/12/21 02:15:14;;;;;;;;;;;;;;;2.69;70.92;98888.16;5033963;28;19920;-76
2023/12/21 02:17:40;;;;;;;;;;;;;;;2.68;70.99;98897.75;5033770;28;19920;-77
2023/12/21 02:20:06;;;;;;;;;;;;;;;2.63;70.94;98896.53;5033877;28;19917;-76
2023/12/21 02:22:33;;;;;;;;;;;;;;;2.62;71.30;98894.91;5033887;28;19913;-76
2023/12/21 02:24:58;;;;;;;;;;;;;;;2.62;70.75;98894.91;5033795;28;19913;-76
2023/12/21 02:27:24;;;;;;;;;;;;;;;2.62;71.36;98884.47;5033551;28;19944;-76
2023/12/21 02:29:49;;;;;;;;;;;;;;;2.60;71.16;98887.22;5033623;28;19996;-76
2023/12/21 02:32:14;;;;;;;;;;;;;;;2.60;71.41;98881.19;5033550;28;20386;-76
2023/12/21 02:34:39;;;;;;;;;;;;;;;2.60;71.56;98878.59;5033620;28;19919;-76
2023/12/21 02:37:05;;;;;;;;;;;;;;;2.59;70.89;98875.16;5033475;28;20475;-76
2023/12/21 02:39:30;;;;;;;;;;;;;;;2.59;71.31;98864.75;5033442;28;19913;-77
2023/12/21 02:41:55;;;;;;;;;;;;;;;2.60;71.42;98863.78;5033422;28;20451;-76
2023/12/21 02:44:20;;;;;;;;;;;;;;;2.59;71.38;98850.88;5032337;28;19913;-77
2023/12/21 02:46:46;;;;;;;;;;;;;;;2.60;71.45;98842.94;5033247;28;20361;-76
2023/12/21 02:49:11;;;;;;;;;;;;;;;2.60;71.26;98842.94;5033391;28;19920;-76
2023/12/21 02:51:36;;;;;;;;;;;;;;;2.61;71.15;98844.56;5032059;28;19975;-76
2023/12/21 02:54:02;;;;;;;;;;;;;;;2.62;71.36;98841.00;5033125;28;19913;-77
2023/12/21 02:56:27;;;;;;;;;;;;;;;2.60;71.07;98840.31;5033098;28;19913;-76
2023/12/21 02:58:52;;;;;;;;;;;;;;;2.56;71.18;98823.34;5033060;28;19912;-76
2023/12/21 03:01:17;;;;;;;;;;;;;;;2.54;71.37;98828.69;5032808;28;20371;-76
2023/12/21 03:03:43;;;;;;;;;;;;;;;2.51;71.27;98815.94;5031518;28;19913;-76
2023/12/21 03:06:08;;;;;;;;;;;;;;;2.51;70.71;98821.16;5032998;28;19909;-76
2023/12/21 03:08:33;;;;;;;;;;;;;;;2.49;71.20;98825.69;5031602;28;19921;-76
2023/12/21 03:10:58;;;;;;;;;;;;;;;2.49;71.26;98814.47;5031565;28;19913;-76
2023/12/21 03:13:24;;;;;;;;;;;;;;;2.46;70.87;98818.16;5031664;28;19913;-76
2023/12/21 03:15:49;;;;;;;;;;;;;;;2.43;71.24;98815.03;5032781;28;19913;-76
2023/12/21 03:18:15;;;;;;;;;;;;;;;2.41;70.94;98812.56;5031482;28;19921;-76
2023/12/21 03:20:40;;;;;;;;;;;;;;;2.43;71.06;98799.41;5032696;28;19913;-76
2023/12/21 03:23:05;;;;;;;;;;;;;;;2.40;71.25;98808.31;5032662;28;19917;-77
2023/12/21 03:25:30;;;;;;;;;;;;;;;2.37;71.21;98807.78;5032561;28;20422;-76
2023/12/21 03:27:56;;;;;;;;;;;;;;;2.34;71.39;98806.31;5032343;28;19932;-76
2023/12/21 03:30:22;;;;;;;;;;;;;;;2.29;71.21;98811.13;5032273;28;20390;-77
2023/12/21 03:32:47;;;;;;;;;;;;;;;2.30;70.91;98806.72;5032595;28;19913;-76
2023/12/21 03:35:12;;;;;;;;;;;;;;;2.29;70.85;98812.91;5032488;28;19919;-76
2023/12/21 03:37:38;;;;;;;;;;;;;;;2.30;71.18;98817.97;5032258;28;20011;-76
2023/12/21 03:40:04;;;;;;;;;;;;;;;2.28;71.08;98808.66;5032283;28;19913;-76
2023/12/21 03:42:29;;;;;;;;;;;;;;;2.28;70.94;98799.06;5032397;28;19913;-76
2023/12/21 03:44:54;;;;;;;;;;;;;;;2.28;71.00;98795.63;5032109;28;19913;-76
2023/12/21 03:47:20;;;;;;;;;;;;;;;2.27;70.97;98783.56;5032008;28;19917;-77
2023/12/21 03:49:45;;;;;;;;;;;;;;;2.28;71.24;98793.84;5032323;28;19917;-76
2023/12/21 03:52:10;;;;;;;;;;;;;;;2.33;71.33;98790.81;5032204;28;19920;-76
2023/12/21 03:54:36;;;;;;;;;;;;;;;2.35;71.27;98786.28;5032000;28;19909;-76
2023/12/21 03:57:01;;;;;;;;;;;;;;;2.38;70.78;98799.03;5032313;28;19913;-77
2023/12/21 03:59:26;;;;;;;;;;;;;;;2.37;71.35;98795.59;5031798;28;19913;-76
2023/12/21 04:01:52;;;;;;;;;;;;;;;2.37;71.05;98806.00;5032041;28;20382;-76
2023/12/21 04:04:17;;;;;;;;;;;;;;;2.38;71.51;98807.66;5030767;28;19920;-77
2023/12/21 04:06:43;;;;;;;;;;;;;;;2.39;70.67;98811.06;5030669;28;19917;-77
2023/12/21 04:09:08;;;;;;;;;;;;;;;2.34;71.01;98821.09;5032006;28;19917;-77
2023/12/21 04:11:33;;;;;;;;;;;;;;;2.32;71.05;98825.63;5032224;28;19913;-76
2023/12/21 04:13:59;;;;;;;;;;;;;;;2.28;71.49;98819.91;5031845;28;19952;-77
2023/12/21 04:16:24;;;;;;;;;;;;;;;2.29;71.42;98825.94;5032175;28;20298;-76
2023/12/21 04:18:49;;;;;;;;;;;;;;;2.30;70.95;98825.78;5031960;28;19944;-76
2023/12/21 04:21:15;;;;;;;;;;;;;;;2.31;70.99;98822.22;5031910;28;19913;-77
2023/12/21 04:23:40;;;;;;;;;;;;;;;2.33;70.98;98822.91;5032240;28;19919;-77
2023/12/21 04:26:05;;;;;;;;;;;;;;;2.32;71.50;98828.25;5031693;28;19960;-76
2023/12/21 04:28:30;;;;;;;;;;;;;;;2.31;71.13;98830.03;5031843;28;20353;-76
2023/12/21 04:30:56;;;;;;;;;;;;;;;2.33;71.10;98816.88;5031660;28;20003;-76
2023/12/21 04:33:21;;;;;;;;;;;;;;;2.32;71.47;98830.84;5031455;28;19917;-77
2023/12/21 04:35:46;;;;;;;;;;;;;;;2.36;71.00;98829.59;5030267;28;19917;-77
2023/12/21 04:38:12;;;;;;;;;;;;;;;2.37;71.29;98823.44;5030295;28;20361;-76
2023/12/21 04:40:37;;;;;;;;;;;;;;;2.39;71.05;98827.53;5031644;28;19920;-77
2023/12/21 04:43:03;;;;;;;;;;;;;;;2.39;70.97;98824.91;5030271;28;19913;-77
2023/12/21 04:45:28;;;;;;;;;;;;;;;2.34;71.01;98818.50;5031820;28;20314;-77
2023/12/21 04:47:53;;;;;;;;;;;;;;;2.30;71.04;98823.19;5031545;28;20014;-77
2023/12/21 04:50:19;;;;;;;;;;;;;;;2.31;71.30;98821.41;5031639;28;20421;-76
2023/12/21 04:52:45;;;;;;;;;;;;;;;2.30;71.60;98817.16;5031610;28;20320;-76
2023/12/21 04:55:11;;;;;;;;;;;;;;;2.32;71.10;98818.66;5031540;28;19913;-77
2023/12/21 04:57:36;;;;;;;;;;;;;;;2.34;71.44;98808.91;5031481;28;19913;-76
2023/12/21 05:00:02;;;;;;;;;;;;;;;2.34;71.00;98810.69;5030278;28;19967;-77
2023/12/21 05:02:27;;;;;;;;;;;;;;;2.38;71.25;98819.84;5031462;28;19913;-77
2023/12/21 05:04:52;;;;;;;;;;;;;;;2.38;70.96;98820.69;5031358;28;19935;-76
2023/12/21 05:07:18;;;;;;;;;;;;;;;2.42;71.16;98823.81;5031389;28;19917;-77
2023/12/21 05:09:43;;;;;;;;;;;;;;;2.41;71.49;98825.59;5031461;28;20369;-76
2023/12/21 05:12:08;;;;;;;;;;;;;;;2.41;71.31;98835.19;5035249;28;19913;-77
2023/12/21 05:14:34;;;;;;;;;;;;;;;2.41;71.08;98830.81;5035148;28;20410;-76
2023/12/21 05:16:59;;;;;;;;;;;;;;;2.43;71.51;98843.69;5035253;28;20302;-77
2023/12/21 05:19:24;;;;;;;;;;;;;;;2.41;70.79;98841.22;5035175;28;19913;-77
2023/12/21 05:21:50;;;;;;;;;;;;;;;2.36;71.11;98842.63;5035000;28;20635;-77
2023/12/21 05:24:15;;;;;;;;;;;;;;;2.33;71.00;98845.50;5034995;28;19991;-77
2023/12/21 05:26:40;;;;;;;;;;;;;;;2.33;70.88;98846.34;5035045;28;19956;-77
2023/12/21 05:29:05;;;;;;;;;;;;;;;2.36;71.17;98850.44;5033599;28;19917;-77
2023/12/21 05:31:30;;;;;;;;;;;;;;;2.37;71.52;98847.69;5034830;28;19983;-77
2023/12/21 05:33:56;;;;;;;;;;;;;;;2.41;71.02;98854.25;5035063;28;19920;-77
2023/12/21 05:36:24;;;;;;;;;;;;;;;2.40;71.15;98857.00;5033814;28;19919;-77
2023/12/21 05:38:50;;;;;;;;;;;;;;;2.42;71.06;98858.50;5034470;28;20394;-76
2023/12/21 05:41:16;;;;;;;;;;;;;;;2.43;71.30;98859.31;5034701;28;19919;-77
2023/12/21 05:43:42;;;;;;;;;;;;;;;2.39;71.09;98864.00;5034663;28;19913;-77
2023/12/21 05:46:07;;;;;;;;;;;;;;;2.34;70.71;98858.41;5034706;28;19935;-77
2023/12/21 05:48:33;;;;;;;;;;;;;;;2.34;71.43;98863.59;5034333;28;19917;-76
2023/12/21 05:50:58;;;;;;;;;;;;;;;2.35;70.89;98880.06;5034621;28;19913;-77
2023/12/21 05:53:24;;;;;;;;;;;;;;;2.30;70.82;98877.88;5034805;28;19917;-77
2023/12/21 05:55:49;;;;;;;;;;;;;;;2.29;71.64;98878.84;5034345;28;19917;-77
2023/12/21 05:58:14;;;;;;;;;;;;;;;2.29;70.78;98884.03;5034572;28;19962;-77
2023/12/21 06:00:39;;;;;;;;;;;;;;;2.34;71.23;98883.63;5034483;28;19920;-77
2023/12/21 06:03:05;;;;;;;;;;;;;;;2.35;71.01;98887.88;5033309;28;20430;-77
2023/12/21 06:05:30;;;;;;;;;;;;;;;2.35;70.65;98893.91;5042213;28;19922;-77
2023/12/21 06:07:56;;;;;;;;;;;;;;;2.39;71.06;98897.88;5055350;28;20011;-77
2023/12/21 06:10:21;;;;;;;;;;;;;;;2.33;71.11;98885.41;5034945;28;19917;-77
2023/12/21 06:12:46;;;;;;;;;;;;;;;2.34;70.70;98884.44;5040652;28;19916;-76
2023/12/21 06:15:12;;;;;;;;;;;;;;;2.32;70.64;98888.97;5054323;28;20306;-77
2023/12/21 06:17:38;;;;;;;;;;;;;;;2.30;71.26;98890.91;5054225;28;19913;-77
2023/12/21 06:20:03;;;;;;;;;;;;;;;2.29;70.98;98889.25;5046010;28;19921;-77
2023/12/21 06:22:28;;;;;;;;;;;;;;;2.29;71.31;98894.47;5032402;28;19909;-77
2023/12/21 06:24:54;;;;;;;;;;;;;;;2.33;71.00;98893.22;5041569;28;20398;-77
2023/12/21 06:27:19;;;;;;;;;;;;;;;2.38;70.70;98893.63;5042257;28;19921;-76
2023/12/21 06:29:44;;;;;;;;;;;;;;;2.40;71.20;98896.91;5033850;28;20313;-77
2023/12/21 06:32:10;;;;;;;;;;;;;;;2.43;71.17;98888.81;5033757;28;19914;-77
2023/12/21 06:34:35;;;;;;;;;;;;;;;2.46;71.20;98888.50;5032813;28;19913;-77
2023/12/21 06:37:01;;;;;;;;;;;;;;;2.48;70.92;98893.59;5050872;28;19916;-77
2023/12/21 06:39:26;;;;;;;;;;;;;;;2.50;70.83;98897.69;5034654;28;19917;-76
2023/12/21 06:41:51;;;;;;;;;;;;;;;2.54;70.89;98895.63;5051416;28;19956;-77
2023/12/21 06:44:16;;;;;;;;;;;;;;;2.56;71.52;98896.28;5053588;28;20011;-77
2023/12/21 06:46:42;;;;;;;;;;;;;;;2.59;70.84;98906.44;5045181;28;20386;-76
2023/12/21 06:49:11;;;;;;;;;;;;;;;2.64;71.17;98908.63;5053307;28;19919;-77
2023/12/21 06:51:36;;;;;;;;;;;;;;;2.70;71.29;98913.25;5050495;28;19998;-77
2023/12/21 06:54:01;;;;;;;;;;;;;;;2.74;70.91;98909.38;5036621;28;20403;-77
2023/12/21 06:56:27;;;;;;;;;;;;;;;2.78;71.01;98914.16;5042278;28;19935;-77
2023/12/21 06:58:53;;;;;;;;;;;;;;;2.81;70.58;98921.69;5042750;28;19970;-77
2023/12/21 07:01:18;;;;;;;;;;;;;;;2.84;70.83;98915.38;5051941;28;19923;-76
2023/12/21 07:03:43;;;;;;;;;;;;;;;2.86;70.56;98916.88;5051024;28;19916;-77
2023/12/21 07:06:10;;;;;;;;;;;;;;;2.92;70.70;98918.09;5051728;28;19917;-77
2023/12/21 07:08:35;;;;;;;;;;;;;;;3.02;70.98;98918.88;5053123;28;20373;-77
2023/12/21 07:11:00;;;;;;;;;;;;;;;3.14;70.48;98917.72;5052833;28;19927;-77
2023/12/21 07:13:26;;;;;;;;;;;;;;;3.22;70.71;98909.16;5052923;28;20302;-77
2023/12/21 07:15:51;;;;;;;;;;;;;;;3.30;70.44;98905.81;5051140;28;19916;-77
2023/12/21 07:18:16;;;;;;;;;;;;;;;3.35;70.62;98900.97;5034955;28;19967;-77
2023/12/21 07:20:41;;;;;;;;;;;;;;;3.45;70.02;98893.91;5027208;28;20409;-77
2023/12/21 07:23:07;;;;;;;;;;;;;;;3.58;70.39;98898.75;5042426;28;19917;-76
2023/12/21 07:25:32;;;;;;;;;;;;;;;3.75;70.68;98895.34;5045069;28;20317;-76
2023/12/21 07:27:57;;;;;;;;;;;;;;;3.89;70.48;98897.41;5052526;28;19916;-77
2023/12/21 07:30:22;;;;;;;;;;;;;;;4.02;69.94;98894.41;5051277;28;20350;-77
2023/12/21 07:32:48;;;;;;;;;;;;;;;4.10;69.92;98897.91;5052484;28;19913;-76
2023/12/21 07:35:13;;;;;;;;;;;;;;;4.17;69.56;98890.28;5037669;28;19925;-77
2023/12/21 07:37:38;;;;;;;;;;;;;;;4.22;69.72;98892.41;5011001;28;19975;-78
2023/12/21 07:40:04;;;;;;;;;;;;;;;4.29;69.67;98896.88;5017968;28;20299;-77
2023/12/21 07:42:29;;;;;;;;;;;;;;;4.36;70.19;98884.84;5030059;28;19917;-77
2023/12/21 07:44:55;;;;;;;;;;;;;;;4.43;69.74;98890.25;5031127;28;19959;-77
2023/12/21 07:47:20;;;;;;;;;;;;;;;4.49;69.84;98892.28;5030683;28;19925;-77
2023/12/21 07:49:45;;;;;;;;;;;;;;;4.59;69.58;98886.94;5032394;28;19921;-77
2023/12/21 07:52:10;;;;;;;;;;;;;;;4.65;69.41;98892.38;5029215;28;19924;-76
2023/12/21 07:54:36;;;;;;;;;;;;;;;4.74;69.12;98901.06;5030579;28;19936;-77
2023/12/21 07:57:01;;;;;;;;;;;;;;;4.81;69.42;98889.00;5028989;28;19919;-77
2023/12/21 07:59:26;;;;;;;;;;;;;;;4.89;69.34;98877.75;5030568;28;20014;-77
2023/12/21 08:01:51;;;;;;;;;;;;;;;4.97;69.18;98888.25;5032949;28;19927;-76
2023/12/21 08:04:17;;;;;;;;;;;;;;;5.05;68.44;98896.94;5031774;28;19992;-76
2023/12/21 08:06:42;;;;;;;;;;;;;;;5.10;68.51;98901.69;5031697;28;20397;-76
2023/12/21 08:09:07;;;;;;;;;;;;;;;5.15;68.65;98901.22;5030259;28;19917;-76
2023/12/21 08:11:33;;;;;;;;;;;;;;;5.22;68.26;98903.06;5030085;28;20314;-77
2023/12/21 08:13:58;;;;;;;;;;;;;;;5.28;68.16;98901.59;5040852;28;19924;-76
2023/12/21 08:16:23;;;;;;;;;;;;;;;5.36;67.74;98899.00;5047621;28;20334;-76
2023/12/21 08:18:48;;;;;;;;;;;;;;;5.38;68.46;98899.66;5034779;28;19921;-76
2023/12/21 08:21:14;;;;;;;;;;;;;;;5.45;67.84;98899.84;5029290;28;19927;-76
2023/12/21 08:23:39;;;;;;;;;;;;;;;5.49;67.26;98901.16;5030207;28;19914;-76
2023/12/21 08:26:05;;;;;;;;;;;;;;;5.54;67.55;98910.16;5030743;28;19943;-75
2023/12/21 08:28:31;;;;;;;;;;;;;;;5.58;68.00;98911.47;5040651;28;20352;-76
2023/12/21 08:30:56;;;;;;;;;;;;;;;5.64;67.21;98910.84;5044313;28;19917;-77
2023/12/21 08:33:22;;;;;;;;;;;;;;;5.66;67.05;98906.25;5031318;28;19956;-76
2023/12/21 08:35:47;;;;;;;;;;;;;;;5.71;67.66;98909.22;5027038;28;19913;-76
2023/12/21 08:38:12;;;;;;;;;;;;;;;5.75;66.98;98904.47;5030710;28;19921;-77
2023/12/21 08:40:37;;;;;;;;;;;;;;;5.79;67.32;98905.78;5027111;28;20401;-75
2023/12/21 08:43:03;;;;;;;;;;;;;;;5.83;67.36;98901.84;5031073;28;19943;-76
2023/12/21 08:45:28;;;;;;;;;;;;;;;5.87;67.00;98907.56;5032457;28;19917;-75
2023/12/21 08:47:54;;;;;;;;;;;;;;;5.90;66.90;98904.66;5042045;28;19924;-75
2023/12/21 08:50:19;;;;;;;;;;;;;;;5.94;66.69;98914.66;5043534;28;19917;-76
2023/12/21 08:52:45;;;;;;;;;;;;;;;5.99;67.04;98915.00;5033512;28;19990;-75
2023/12/21 08:55:10;;;;;;;;;;;;;;;6.00;67.15;98907.97;5035367;28;19913;-75
2023/12/21 08:57:38;;;;;;;;;;;;;;;6.04;67.06;98909.28;5034250;28;19926;-75
2023/12/21 09:00:05;;;;;;;;;;;;;;;6.07;66.64;98908.94;5036872;28;20009;-75
2023/12/21 09:02:32;;;;;;;;;;;;;;;6.12;67.10;98908.44;5032744;28;19923;-76
2023/12/21 09:04:57;;;;;;;;;;;;;;;6.16;66.54;98905.34;5036373;28;20372;-76
2023/12/21 09:07:24;;;;;;;;;;;;;;;6.17;66.75;98904.34;5032537;28;19999;-76
2023/12/21 09:09:49;;;;;;;;;;;;;;;6.17;66.63;98903.53;5035300;28;19913;-76
2023/12/21 09:12:15;;;;;;;;;;;;;;;6.20;66.65;98903.19;5034243;28;20338;-75
2023/12/21 09:14:40;;;;;;;;;;;;;;;6.22;66.68;98907.28;5034938;28;19917;-77
2023/12/21 09:17:06;;;;;;;;;;;;;;;6.21;66.54;98908.28;5034507;28;20012;-75
2023/12/21 09:19:34;;;;;;;;;;;;;;;6.22;67.08;98906.47;5034766;28;20287;-75
2023/12/21 09:22:00;;;;;;;;;;;;;;;6.22;66.61;98903.84;5032875;28;19920;-77
2023/12/21 09:24:25;;;;;;;;;;;;;;;6.22;67.15;98902.03;5032100;28;20321;-76
2023/12/21 09:26:50;;;;;;;;;;;;;;;6.24;66.95;98897.47;5037336;28;19917;-75
2023/12/21 09:29:15;;;;;;;;;;;;;;;6.24;67.19;98886.97;5033295;28;20409;-76
2023/12/21 09:31:41;;;;;;;;;;;;;;;6.27;66.73;98883.19;5031762;28;19928;-76
2023/12/21 09:34:07;;;;;;;;;;;;;;;6.29;66.80;98871.56;5049060;28;19939;-76
2023/12/21 09:36:33;;;;;;;;;;;;;;;6.31;66.64;98866.97;5040213;28;19923;-78
2023/12/21 09:38:58;;;;;;;;;;;;;;;6.34;66.55;98861.38;5032033;28;20310;-76
2023/12/21 09:41:23;;;;;;;;;;;;;;;6.38;66.97;98854.81;5033011;28;19917;-76
2023/12/21 09:43:50;;;;;;;;;;;;;;;6.45;66.50;98859.41;5034114;28;19992;-77
2023/12/21 09:46:15;;;;;;;;;;;;;;;6.51;66.52;98848.22;5033169;28;19924;-76
2023/12/21 09:48:42;;;;;;;;;;;;;;;6.54;66.56;98840.03;5035027;28;19917;-77
2023/12/21 09:51:08;;;;;;;;;;;;;;;6.59;66.17;98837.72;5036019;28;19913;-80
2023/12/21 09:53:35;;;;;;;;;;;;;;;6.67;66.46;98838.50;5042295;28;19917;-77
2023/12/21 09:56:01;;;;;;;;;;;;;;;6.72;65.53;98824.91;5048421;28;19992;-78
2023/12/21 09:58:27;;;;;;;;;;;;;;;6.79;66.21;98820.59;5040639;28;19986;-77
2023/12/21 10:00:52;;;;;;;;;;;;;;;6.87;65.67;98823.19;5054538;28;19913;-78
2023/12/21 10:03:18;;;;;;;;;;;;;;;6.94;65.54;98816.25;5037588;28;19913;-76
2023/12/21 10:05:43;;;;;;;;;;;;;;;7.01;64.66;98808.50;5031736;28;19917;-77
2023/12/21 10:08:09;;;;;;;;;;;;;;;7.06;64.61;98806.19;5035522;28;20029;-78
2023/12/21 10:10:35;;;;;;;;;;;;;;;7.11;65.13;98805.66;5032457;28;20314;-77
2023/12/21 10:13:02;;;;;;;;;;;;;;;7.16;65.09;98795.44;5048298;28;19979;-77
2023/12/21 10:15:30;;;;;;;;;;;;;;;7.22;65.24;98789.50;5040435;28;19921;-77
2023/12/21 10:17:55;;;;;;;;;;;;;;;7.26;64.66;98781.09;5038709;28;19940;-77
2023/12/21 10:20:23;;;;;;;;;;;;;;;7.31;65.04;98789.28;5053762;28;20402;-78
2023/12/21 10:22:48;;;;;;;;;;;;;;;7.37;64.73;98777.25;5039133;28;19979;-79
2023/12/21 10:25:14;;;;;;;;;;;;;;;7.42;65.09;98774.91;5032415;28;20382;-78
2023/12/21 10:27:40;;;;;;;;;;;;;;;7.48;64.85;98771.59;5027911;28;20063;-78
2023/12/21 10:30:06;;;;;;;;;;;;;;;7.51;64.53;98768.63;5029967;28;20390;-79
2023/12/21 10:32:32;;;;;;;;;;;;;;;7.54;64.56;98768.28;5030207;28;19920;-79
2023/12/21 10:34:59;;;;;;;;;;;;;;;7.58;64.74;98760.84;5031241;28;19991;-79
2023/12/21 10:37:24;;;;;;;;;;;;;;;7.62;64.33;98760.31;5031250;28;19925;-79
2023/12/21 10:39:51;;;;;;;;;;;;;;;7.64;64.48;98752.25;5028643;28;19917;-79
2023/12/21 10:42:16;;;;;;;;;;;;;;;7.70;64.89;98746.28;5031363;28;20406;-78
2023/12/21 10:44:46;;;;;;;;;;;;;;;7.74;64.61;98739.69;5039341;28;20010;-78
2023/12/21 10:47:12;;;;;;;;;;;;;;;7.77;64.77;98735.88;5053125;28;19921;-79
2023/12/21 10:49:38;;;;;;;;;;;;;;;7.77;64.50;98725.38;5036099;28;20313;-78
2023/12/21 10:52:05;;;;;;;;;;;;;;;7.80;64.31;98722.38;5032473;28;20546;-79
2023/12/21 10:54:31;;;;;;;;;;;;;;;7.79;64.56;98708.41;5041506;28;19919;-79
2023/12/21 10:56:58;;;;;;;;;;;;;;;7.81;64.51;98709.06;5041671;28;19917;-78
2023/12/21 10:59:24;;;;;;;;;;;;;;;7.85;64.59;98704.25;5031845;28;20364;-78
2023/12/21 11:01:50;;;;;;;;;;;;;;;7.83;64.18;98693.91;5043623;28;20368;-79
2023/12/21 11:04:16;;;;;;;;;;;;;;;7.86;64.37;98695.38;5029763;28;19917;-79
2023/12/21 11:06:43;;;;;;;;;;;;;;;7.88;64.20;98696.81;5030878;28;19936;-79
2023/12/21 11:09:09;;;;;;;;;;;;;;;7.91;63.93;98685.13;5045719;28;19920;-78
2023/12/21 11:11:36;;;;;;;;;;;;;;;7.94;64.53;98679.50;5050810;28;20377;-78
2023/12/21 11:14:01;;;;;;;;;;;;;;;7.97;63.63;98682.59;5050285;28;20007;-79
2023/12/21 11:16:33;;;;;;;;;;;;;;;7.98;63.12;98672.88;5040497;28;19944;-78
2023/12/21 11:18:59;;;;;;;;;;;;;;;8.01;63.50;98664.63;5031078;28;19924;-79
2023/12/21 11:21:29;;;;;;;;;;;;;;;8.02;63.41;98661.00;5031413;28;19913;-78
2023/12/21 11:23:54;;;;;;;;;;;;;;;8.04;63.12;98664.28;5031223;28;20016;-78
2023/12/21 11:26:21;;;;;;;;;;;;;;;8.07;63.71;98647.31;5032518;28;20020;-79
2023/12/21 11:28:49;;;;;;;;;;;;;;;8.09;63.42;98651.41;5032359;28;20461;-79
2023/12/21 11:31:15;;;;;;;;;;;;;;;8.11;63.40;98652.03;5033256;28;19975;-78
2023/12/21 11:33:41;;;;;;;;;;;;;;;8.14;63.33;98659.53;5030759;28;20329;-79
2023/12/21 11:36:07;;;;;;;;;;;;;;;8.17;63.20;98651.28;5030888;28;19917;-78
2023/12/21 11:38:46;;;;;;;;;;;;;;;8.19;62.60;98657.22;5030911;28;19921;-79
2023/12/21 11:41:13;;;;;;;;;;;;;;;8.22;62.90;98667.34;5028368;28;19925;-79
2023/12/21 11:43:40;;;;;;;;;;;;;;;8.24;61.95;98668.00;5012673;28;19981;-78
2023/12/21 11:46:07;;;;;;;;;;;;;;;8.27;62.94;98672.88;5012605;28;19960;-79
2023/12/21 11:48:34;;;;;;;;;;;;;;;8.29;62.33;98670.06;5020671;28;19979;-78
2023/12/21 11:51:01;;;;;;;;;;;;;;;8.29;62.25;98657.72;5029495;28;20379;-78
2023/12/21 11:53:26;;;;;;;;;;;;;;;8.31;62.57;98659.34;5031504;28;20500;-80
2023/12/21 11:55:52;;;;;;;;;;;;;;;8.34;62.72;98651.13;5028295;28;20000;-80
2023/12/21 11:58:22;;;;;;;;;;;;;;;8.35;63.05;98653.56;5038739;28;19917;-78
2023/12/21 12:00:56;;;;;;;;;;;;;;;8.35;62.93;98645.69;5047728;28;19924;-79
2023/12/21 12:03:23;;;;;;;;;;;;;;;8.38;62.94;98636.59;5029344;28;20452;-79
2023/12/21 12:05:49;;;;;;;;;;;;;;;8.38;63.07;98637.44;5023824;28;19924;-79
2023/12/21 12:08:19;;;;;;;;;;;;;;;8.39;62.96;98643.50;5031590;28;19925;-78
2023/12/21 12:10:44;;;;;;;;;;;;;;;8.36;62.73;98634.16;5029118;28;20306;-79
2023/12/21 12:13:15;;;;;;;;;;;;;;;8.40;63.02;98634.59;5030193;28;19921;-79
2023/12/21 12:15:41;;;;;;;;;;;;;;;8.40;62.99;98637.22;5027144;28;19935;-79
2023/12/21 12:18:08;;;;;;;;;;;;;;;8.40;63.44;98632.78;5031647;28;20329;-78
2023/12/21 12:20:36;;;;;;;;;;;;;;;8.41;63.02;98637.06;5028656;28;20330;-78
2023/12/21 12:23:01;;;;;;;;;;;;;;;8.43;63.24;98640.31;5031641;28;19917;-78
2023/12/21 12:25:26;;;;;;;;;;;;;;;8.43;63.28;98632.41;5028330;28;19971;-78
2023/12/21 12:27:52;;;;;;;;;;;;;;;8.41;63.27;98620.44;5030155;28;19928;-79
2023/12/21 12:30:18;;;;;;;;;;;;;;;8.43;63.20;98621.06;5026351;28;20055;-78
2023/12/21 12:32:43;;;;;;;;;;;;;;;8.45;63.35;98622.53;5031307;28;19924;-78
2023/12/21 12:35:09;;;;;;;;;;;;;;;8.47;62.63;98622.34;5029196;28;19996;-77
2023/12/21 12:37:35;;;;;;;;;;;;;;;8.51;62.65;98624.41;5031299;28;20020;-78
2023/12/21 12:40:00;;;;;;;;;;;;;;;8.56;63.32;98615.94;5030316;28;19996;-77
2023/12/21 12:42:27;;;;;;;;;;;;;;;8.57;62.84;98621.03;5027746;28;19951;-78
2023/12/21 12:44:52;;;;;;;;;;;;;;;8.59;62.78;98624.28;5030664;28;19917;-77
2023/12/21 12:47:19;;;;;;;;;;;;;;;8.60;62.73;98618.03;5030397;28;19922;-78
2023/12/21 12:49:45;;;;;;;;;;;;;;;8.62;62.47;98603.84;5027783;28;19974;-77